Sioux Gateway Col. Bud Day Field
KSUX : now visible

Airfield :











YOU CAN JOIN US ON...

 
LOGIN :

Register | Disclaimer

   EN    FR    IT 

 









Legend :    VFR   Marginal VFR   IFR   Intensive IFR   Very Intensive IFR
Visi :
Ceiling :
>= 8 km
>= 3000ft
5 to 8 km
1000 to 3000 ft
1500m to 5 km
500 to 1000 ft
800 to 1500m
200 to 500 ft
< 800m
< 200 ft
Symbols :   Thunderstorms  Fog  Heavy snow  Heavy precipitations  Wind > 20 kt






- Airport Elevation : 1098 ft
- IATA code : SUX


KSUX - Sioux Gateway Col. Bud Day Field

CURRENT METAR :
  • 011752Z 19016G21KT 10SM CLR 21/07 A2979 RMK AO2 SLP086 T02060067 10206 20061 58014

EXPIRED METARs :
  • 011652Z 18011KT 10SM CLR 18/08 A2982 RMK AO2 SLP097 T01830083
  • 011552Z 15009KT 10SM CLR 15/07 A2982 RMK AO2 SLP098 T01500072

TAF KSUX
Valid from the 01 at 18:00 until the 02 at 18:00 UTC


011720Z 0118/0218 17013G18KT P6SM FEW250
FM020100 14012KT P6SM BKN150
FM020300 14011G16KT P6SM BKN100 WS020/17040KT
FM021000 14010KT P6SM VCSH BKN030
FM021400 15010KT P6SM VCSH BKN012



MET'MAP, your aeronautical weather chart ! - Copyright ORBIFLY December 2007 - Disclaimer

ORBIFLY MET'MAP TEAM :

Programming & Development : Alexandra Zaïnal
Concept & original design : Baudouin d'Aumeries
Assistance for programming : Marc-Olivier Méhu
Technical & hardware support : Manuel Goepfert

Contact : metmap@orbifly.com




SOURCES & CREDITS :

   NOAA       Earth
Advisory